sensor_id;sensor_type;location;lat;lon;timestamp;P1;durP1;ratioP1;P2;durP2;ratioP2
53915;SDS011;39827;49.652;18.770;2023-07-29T00:01:36;459.73;;;427.48;;
53915;SDS011;39827;49.652;18.770;2023-07-29T00:04:02;450.70;;;419.15;;
53915;SDS011;39827;49.652;18.770;2023-07-29T00:06:28;423.17;;;393.92;;
53915;SDS011;39827;49.652;18.770;2023-07-29T00:08:53;217.75;;;203.15;;
53915;SDS011;39827;49.652;18.770;2023-07-29T00:11:19;230.02;;;215.23;;
53915;SDS011;39827;49.652;18.770;2023-07-29T00:13:44;280.83;;;262.70;;
53915;SDS011;39827;49.652;18.770;2023-07-29T00:16:09;269.35;;;252.05;;
53915;SDS011;39827;49.652;18.770;2023-07-29T00:18:35;272.02;;;254.63;;
53915;SDS011;39827;49.652;18.770;2023-07-29T00:21:00;305.02;;;285.60;;
53915;SDS011;39827;49.652;18.770;2023-07-29T00:23:26;335.83;;;313.85;;
53915;SDS011;39827;49.652;18.770;2023-07-29T00:25:52;360.52;;;336.45;;
53915;SDS011;39827;49.652;18.770;2023-07-29T00:28:18;337.90;;;315.83;;
53915;SDS011;39827;49.652;18.770;2023-07-29T00:30:43;309.77;;;290.00;;
53915;SDS011;39827;49.652;18.770;2023-07-29T00:33:08;285.27;;;266.55;;
53915;SDS011;39827;49.652;18.770;2023-07-29T00:35:34;339.38;;;317.05;;
53915;SDS011;39827;49.652;18.770;2023-07-29T00:38:00;334.92;;;312.67;;
53915;SDS011;39827;49.652;18.770;2023-07-29T00:40:25;376.45;;;350.63;;
53915;SDS011;39827;49.652;18.770;2023-07-29T00:42:53;465.65;;;431.85;;
53915;SDS011;39827;49.652;18.770;2023-07-29T00:45:18;436.63;;;406.23;;
53915;SDS011;39827;49.652;18.770;2023-07-29T00:47:44;381.40;;;355.95;;
53915;SDS011;39827;49.652;18.770;2023-07-29T00:50:11;384.15;;;358.27;;
53915;SDS011;39827;49.652;18.770;2023-07-29T00:52:37;406.98;;;378.60;;
53915;SDS011;39827;49.652;18.770;2023-07-29T00:55:03;386.23;;;359.40;;
53915;SDS011;39827;49.652;18.770;2023-07-29T00:57:30;333.63;;;311.50;;
53915;SDS011;39827;49.652;18.770;2023-07-29T00:59:57;345.50;;;322.33;;
53915;SDS011;39827;49.652;18.770;2023-07-29T01:02:23;406.40;;;378.38;;
53915;SDS011;39827;49.652;18.770;2023-07-29T01:04:53;365.80;;;341.63;;
53915;SDS011;39827;49.652;18.770;2023-07-29T01:09:55;314.33;;;293.80;;
53915;SDS011;39827;49.652;18.770;2023-07-29T01:15:19;347.55;;;324.50;;
53915;SDS011;39827;49.652;18.770;2023-07-29T01:17:47;349.38;;;326.52;;
53915;SDS011;39827;49.652;18.770;2023-07-29T01:20:17;322.02;;;301.05;;
53915;SDS011;39827;49.652;18.770;2023-07-29T01:22:45;289.33;;;271.23;;
53915;SDS011;39827;49.652;18.770;2023-07-29T01:25:12;338.85;;;316.60;;
53915;SDS011;39827;49.652;18.770;2023-07-29T01:27:38;319.77;;;298.83;;
53915;SDS011;39827;49.652;18.770;2023-07-29T01:30:04;279.40;;;261.48;;
53915;SDS011;39827;49.652;18.770;2023-07-29T01:32:36;318.10;;;297.48;;
53915;SDS011;39827;49.652;18.770;2023-07-29T01:35:10;335.95;;;313.73;;
53915;SDS011;39827;49.652;18.770;2023-07-29T01:37:43;361.42;;;337.52;;
53915;SDS011;39827;49.652;18.770;2023-07-29T01:40:13;331.67;;;309.73;;
53915;SDS011;39827;49.652;18.770;2023-07-29T01:42:39;331.05;;;308.52;;
53915;SDS011;39827;49.652;18.770;2023-07-29T01:45:05;321.60;;;300.27;;
53915;SDS011;39827;49.652;18.770;2023-07-29T01:47:31;406.17;;;378.15;;
53915;SDS011;39827;49.652;18.770;2023-07-29T01:49:56;388.20;;;362.23;;
53915;SDS011;39827;49.652;18.770;2023-07-29T01:52:21;287.95;;;269.40;;
53915;SDS011;39827;49.652;18.770;2023-07-29T01:54:47;292.92;;;273.52;;
53915;SDS011;39827;49.652;18.770;2023-07-29T01:57:13;400.55;;;372.95;;
53915;SDS011;39827;49.652;18.770;2023-07-29T01:59:38;368.15;;;342.92;;
53915;SDS011;39827;49.652;18.770;2023-07-29T02:02:04;373.95;;;348.15;;
53915;SDS011;39827;49.652;18.770;2023-07-29T02:04:29;376.02;;;350.35;;
53915;SDS011;39827;49.652;18.770;2023-07-29T02:06:55;322.35;;;301.08;;
53915;SDS011;39827;49.652;18.770;2023-07-29T02:09:20;330.17;;;308.23;;
53915;SDS011;39827;49.652;18.770;2023-07-29T02:11:45;345.08;;;322.70;;
53915;SDS011;39827;49.652;18.770;2023-07-29T02:14:11;377.83;;;352.88;;
53915;SDS011;39827;49.652;18.770;2023-07-29T02:16:36;347.75;;;325.15;;
53915;SDS011;39827;49.652;18.770;2023-07-29T02:19:02;288.25;;;269.80;;
53915;SDS011;39827;49.652;18.770;2023-07-29T02:21:28;245.43;;;230.02;;
53915;SDS011;39827;49.652;18.770;2023-07-29T02:23:53;275.23;;;257.75;;
53915;SDS011;39827;49.652;18.770;2023-07-29T02:26:19;266.35;;;249.52;;
53915;SDS011;39827;49.652;18.770;2023-07-29T02:28:44;257.33;;;241.00;;
53915;SDS011;39827;49.652;18.770;2023-07-29T02:31:13;316.80;;;296.15;;
53915;SDS011;39827;49.652;18.770;2023-07-29T02:33:46;273.10;;;255.70;;
53915;SDS011;39827;49.652;18.770;2023-07-29T02:36:12;274.80;;;257.50;;
53915;SDS011;39827;49.652;18.770;2023-07-29T02:38:38;217.55;;;203.48;;
53915;SDS011;39827;49.652;18.770;2023-07-29T02:41:04;292.45;;;272.88;;
53915;SDS011;39827;49.652;18.770;2023-07-29T02:43:30;312.75;;;291.98;;
53915;SDS011;39827;49.652;18.770;2023-07-29T02:45:55;346.67;;;322.77;;
53915;SDS011;39827;49.652;18.770;2023-07-29T02:48:21;397.45;;;369.42;;
53915;SDS011;39827;49.652;18.770;2023-07-29T02:50:46;289.65;;;269.73;;
53915;SDS011;39827;49.652;18.770;2023-07-29T02:53:11;481.55;;;446.40;;
53915;SDS011;39827;49.652;18.770;2023-07-29T02:55:40;350.70;;;327.65;;
53915;SDS011;39827;49.652;18.770;2023-07-29T02:58:05;374.48;;;349.40;;
53915;SDS011;39827;49.652;18.770;2023-07-29T03:00:32;362.48;;;337.88;;
53915;SDS011;39827;49.652;18.770;2023-07-29T03:02:58;355.27;;;331.25;;
53915;SDS011;39827;49.652;18.770;2023-07-29T03:05:23;379.63;;;353.63;;
53915;SDS011;39827;49.652;18.770;2023-07-29T03:07:49;381.17;;;354.35;;
53915;SDS011;39827;49.652;18.770;2023-07-29T03:10:14;346.75;;;323.50;;
53915;SDS011;39827;49.652;18.770;2023-07-29T03:12:40;387.45;;;360.05;;
53915;SDS011;39827;49.652;18.770;2023-07-29T03:15:05;338.58;;;315.77;;
53915;SDS011;39827;49.652;18.770;2023-07-29T03:17:31;350.02;;;326.58;;
53915;SDS011;39827;49.652;18.770;2023-07-29T03:19:57;279.40;;;261.58;;
53915;SDS011;39827;49.652;18.770;2023-07-29T03:22:22;267.52;;;250.20;;
53915;SDS011;39827;49.652;18.770;2023-07-29T03:24:48;359.95;;;335.63;;
53915;SDS011;39827;49.652;18.770;2023-07-29T03:27:13;377.90;;;352.33;;
53915;SDS011;39827;49.652;18.770;2023-07-29T03:29:40;343.95;;;321.33;;
53915;SDS011;39827;49.652;18.770;2023-07-29T03:32:06;289.92;;;271.17;;
53915;SDS011;39827;49.652;18.770;2023-07-29T03:34:31;295.90;;;276.58;;
53915;SDS011;39827;49.652;18.770;2023-07-29T03:36:57;359.40;;;335.63;;
53915;SDS011;39827;49.652;18.770;2023-07-29T03:39:23;383.25;;;357.92;;
53915;SDS011;39827;49.652;18.770;2023-07-29T03:41:49;267.83;;;250.80;;
53915;SDS011;39827;49.652;18.770;2023-07-29T03:44:14;257.67;;;241.00;;
53915;SDS011;39827;49.652;18.770;2023-07-29T03:46:40;266.90;;;250.02;;
53915;SDS011;39827;49.652;18.770;2023-07-29T03:49:05;254.05;;;237.95;;
53915;SDS011;39827;49.652;18.770;2023-07-29T03:51:30;293.48;;;274.30;;
53915;SDS011;39827;49.652;18.770;2023-07-29T03:53:56;282.83;;;264.65;;
53915;SDS011;39827;49.652;18.770;2023-07-29T03:56:21;265.52;;;248.50;;
53915;SDS011;39827;49.652;18.770;2023-07-29T03:58:47;289.95;;;271.50;;
53915;SDS011;39827;49.652;18.770;2023-07-29T04:01:15;279.83;;;261.92;;
53915;SDS011;39827;49.652;18.770;2023-07-29T04:03:41;383.33;;;356.65;;
53915;SDS011;39827;49.652;18.770;2023-07-29T04:06:06;359.80;;;335.65;;
53915;SDS011;39827;49.652;18.770;2023-07-29T04:08:32;300.08;;;280.40;;
53915;SDS011;39827;49.652;18.770;2023-07-29T04:10:58;309.00;;;289.13;;
53915;SDS011;39827;49.652;18.770;2023-07-29T04:13:23;314.30;;;293.52;;
53915;SDS011;39827;49.652;18.770;2023-07-29T04:15:49;346.15;;;323.55;;
53915;SDS011;39827;49.652;18.770;2023-07-29T04:18:14;357.77;;;334.40;;
53915;SDS011;39827;49.652;18.770;2023-07-29T04:20:39;347.95;;;325.55;;
53915;SDS011;39827;49.652;18.770;2023-07-29T04:23:05;293.80;;;275.35;;
53915;SDS011;39827;49.652;18.770;2023-07-29T04:25:30;288.05;;;269.83;;
53915;SDS011;39827;49.652;18.770;2023-07-29T04:27:56;298.88;;;279.55;;
53915;SDS011;39827;49.652;18.770;2023-07-29T04:30:22;314.02;;;293.20;;
53915;SDS011;39827;49.652;18.770;2023-07-29T04:32:48;300.15;;;280.13;;
53915;SDS011;39827;49.652;18.770;2023-07-29T04:35:13;273.15;;;255.48;;
53915;SDS011;39827;49.652;18.770;2023-07-29T04:37:39;256.92;;;240.32;;
53915;SDS011;39827;49.652;18.770;2023-07-29T04:40:05;307.70;;;287.27;;
53915;SDS011;39827;49.652;18.770;2023-07-29T04:42:31;305.33;;;285.25;;
53915;SDS011;39827;49.652;18.770;2023-07-29T04:44:57;312.08;;;291.17;;
53915;SDS011;39827;49.652;18.770;2023-07-29T04:47:22;297.20;;;277.17;;
53915;SDS011;39827;49.652;18.770;2023-07-29T04:49:48;298.10;;;278.17;;
53915;SDS011;39827;49.652;18.770;2023-07-29T04:52:13;320.98;;;298.58;;
53915;SDS011;39827;49.652;18.770;2023-07-29T04:54:40;272.52;;;253.95;;
53915;SDS011;39827;49.652;18.770;2023-07-29T04:57:05;328.40;;;305.73;;
53915;SDS011;39827;49.652;18.770;2023-07-29T04:59:31;390.75;;;363.13;;
53915;SDS011;39827;49.652;18.770;2023-07-29T05:01:56;360.67;;;335.40;;
53915;SDS011;39827;49.652;18.770;2023-07-29T05:04:22;299.67;;;279.58;;
53915;SDS011;39827;49.652;18.770;2023-07-29T05:06:48;386.13;;;358.92;;
53915;SDS011;39827;49.652;18.770;2023-07-29T05:09:14;306.35;;;285.70;;
53915;SDS011;39827;49.652;18.770;2023-07-29T05:11:41;212.32;;;198.52;;
53915;SDS011;39827;49.652;18.770;2023-07-29T05:14:08;189.07;;;176.82;;
53915;SDS011;39827;49.652;18.770;2023-07-29T05:16:34;165.60;;;154.77;;
53915;SDS011;39827;49.652;18.770;2023-07-29T05:19:00;281.48;;;262.20;;
53915;SDS011;39827;49.652;18.770;2023-07-29T05:21:25;122.80;;;115.10;;
53915;SDS011;39827;49.652;18.770;2023-07-29T05:23:50;123.35;;;115.53;;
53915;SDS011;39827;49.652;18.770;2023-07-29T05:26:16;90.93;;;85.63;;
53915;SDS011;39827;49.652;18.770;2023-07-29T05:28:41;75.78;;;71.05;;
53915;SDS011;39827;49.652;18.770;2023-07-29T05:31:07;86.63;;;81.35;;
53915;SDS011;39827;49.652;18.770;2023-07-29T05:33:32;112.47;;;105.93;;
53915;SDS011;39827;49.652;18.770;2023-07-29T05:35:57;108.82;;;102.47;;
53915;SDS011;39827;49.652;18.770;2023-07-29T05:38:23;82.40;;;77.55;;
53915;SDS011;39827;49.652;18.770;2023-07-29T05:40:48;91.43;;;86.07;;
53915;SDS011;39827;49.652;18.770;2023-07-29T05:43:14;36.40;;;34.08;;
53915;SDS011;39827;49.652;18.770;2023-07-29T05:45:39;36.65;;;34.45;;
53915;SDS011;39827;49.652;18.770;2023-07-29T05:48:05;64.93;;;61.08;;
53915;SDS011;39827;49.652;18.770;2023-07-29T05:50:31;29.98;;;27.95;;
53915;SDS011;39827;49.652;18.770;2023-07-29T05:52:56;27.65;;;25.92;;
53915;SDS011;39827;49.652;18.770;2023-07-29T05:55:22;23.05;;;21.63;;
53915;SDS011;39827;49.652;18.770;2023-07-29T05:57:47;23.60;;;22.10;;
53915;SDS011;39827;49.652;18.770;2023-07-29T06:00:13;23.40;;;21.20;;
53915;SDS011;39827;49.652;18.770;2023-07-29T06:02:38;20.98;;;19.63;;
53915;SDS011;39827;49.652;18.770;2023-07-29T06:05:06;22.02;;;20.63;;
53915;SDS011;39827;49.652;18.770;2023-07-29T06:07:32;26.58;;;24.92;;
53915;SDS011;39827;49.652;18.770;2023-07-29T06:09:58;26.08;;;24.40;;
53915;SDS011;39827;49.652;18.770;2023-07-29T06:12:24;47.10;;;43.92;;
53915;SDS011;39827;49.652;18.770;2023-07-29T06:14:49;104.47;;;98.50;;
53915;SDS011;39827;49.652;18.770;2023-07-29T06:17:15;120.45;;;113.60;;
53915;SDS011;39827;49.652;18.770;2023-07-29T06:19:40;116.38;;;109.30;;
53915;SDS011;39827;49.652;18.770;2023-07-29T06:22:06;137.52;;;129.63;;
53915;SDS011;39827;49.652;18.770;2023-07-29T06:24:31;148.35;;;139.80;;
53915;SDS011;39827;49.652;18.770;2023-07-29T06:26:57;93.35;;;87.82;;
53915;SDS011;39827;49.652;18.770;2023-07-29T06:29:23;55.83;;;52.42;;
53915;SDS011;39827;49.652;18.770;2023-07-29T06:31:48;60.70;;;56.83;;
53915;SDS011;39827;49.652;18.770;2023-07-29T06:34:16;42.50;;;39.78;;
53915;SDS011;39827;49.652;18.770;2023-07-29T06:36:42;41.45;;;38.78;;
53915;SDS011;39827;49.652;18.770;2023-07-29T06:39:07;43.53;;;40.80;;
53915;SDS011;39827;49.652;18.770;2023-07-29T06:41:32;50.38;;;47.38;;
53915;SDS011;39827;49.652;18.770;2023-07-29T06:43:58;38.97;;;36.63;;
53915;SDS011;39827;49.652;18.770;2023-07-29T06:46:23;37.72;;;35.45;;
53915;SDS011;39827;49.652;18.770;2023-07-29T06:48:48;41.28;;;38.63;;
53915;SDS011;39827;49.652;18.770;2023-07-29T06:51:14;43.92;;;41.15;;
53915;SDS011;39827;49.652;18.770;2023-07-29T06:53:39;41.90;;;39.38;;
53915;SDS011;39827;49.652;18.770;2023-07-29T06:56:05;42.45;;;39.85;;
53915;SDS011;39827;49.652;18.770;2023-07-29T06:58:30;30.33;;;28.35;;
53915;SDS011;39827;49.652;18.770;2023-07-29T07:00:55;33.85;;;31.85;;
53915;SDS011;39827;49.652;18.770;2023-07-29T07:03:21;39.65;;;37.05;;
53915;SDS011;39827;49.652;18.770;2023-07-29T07:05:47;35.75;;;33.58;;
53915;SDS011;39827;49.652;18.770;2023-07-29T07:08:13;29.58;;;27.55;;
53915;SDS011;39827;49.652;18.770;2023-07-29T07:10:38;29.20;;;27.42;;
53915;SDS011;39827;49.652;18.770;2023-07-29T07:13:04;26.50;;;24.83;;
53915;SDS011;39827;49.652;18.770;2023-07-29T07:15:29;26.05;;;23.80;;
53915;SDS011;39827;49.652;18.770;2023-07-29T07:17:54;26.83;;;25.17;;
53915;SDS011;39827;49.652;18.770;2023-07-29T07:20:20;20.35;;;19.05;;
53915;SDS011;39827;49.652;18.770;2023-07-29T07:22:45;24.67;;;23.15;;
53915;SDS011;39827;49.652;18.770;2023-07-29T07:25:11;17.15;;;16.05;;
53915;SDS011;39827;49.652;18.770;2023-07-29T07:27:36;27.40;;;25.70;;
53915;SDS011;39827;49.652;18.770;2023-07-29T07:30:02;24.15;;;22.55;;
53915;SDS011;39827;49.652;18.770;2023-07-29T07:32:28;31.17;;;29.25;;
53915;SDS011;39827;49.652;18.770;2023-07-29T07:34:54;23.65;;;22.00;;
53915;SDS011;39827;49.652;18.770;2023-07-29T07:37:19;26.90;;;25.30;;
53915;SDS011;39827;49.652;18.770;2023-07-29T07:39:44;26.27;;;24.70;;
53915;SDS011;39827;49.652;18.770;2023-07-29T07:42:10;28.17;;;26.38;;
53915;SDS011;39827;49.652;18.770;2023-07-29T07:44:35;23.20;;;21.80;;
53915;SDS011;39827;49.652;18.770;2023-07-29T07:47:00;25.42;;;23.83;;
53915;SDS011;39827;49.652;18.770;2023-07-29T07:49:26;20.63;;;19.38;;
53915;SDS011;39827;49.652;18.770;2023-07-29T07:51:51;21.15;;;19.65;;
53915;SDS011;39827;49.652;18.770;2023-07-29T07:54:17;22.65;;;21.25;;
53915;SDS011;39827;49.652;18.770;2023-07-29T07:56:42;18.38;;;17.25;;
53915;SDS011;39827;49.652;18.770;2023-07-29T07:59:08;19.08;;;17.88;;
53915;SDS011;39827;49.652;18.770;2023-07-29T08:01:39;20.52;;;19.23;;
53915;SDS011;39827;49.652;18.770;2023-07-29T08:04:05;20.48;;;19.17;;
53915;SDS011;39827;49.652;18.770;2023-07-29T08:06:31;22.75;;;21.35;;
53915;SDS011;39827;49.652;18.770;2023-07-29T08:08:57;23.00;;;21.58;;
53915;SDS011;39827;49.652;18.770;2023-07-29T08:11:23;23.25;;;21.77;;
53915;SDS011;39827;49.652;18.770;2023-07-29T08:13:49;28.63;;;26.88;;
53915;SDS011;39827;49.652;18.770;2023-07-29T08:16:14;29.90;;;27.35;;
53915;SDS011;39827;49.652;18.770;2023-07-29T08:18:40;29.17;;;27.40;;
53915;SDS011;39827;49.652;18.770;2023-07-29T08:21:05;31.08;;;29.17;;
53915;SDS011;39827;49.652;18.770;2023-07-29T08:23:32;36.47;;;34.25;;
53915;SDS011;39827;49.652;18.770;2023-07-29T08:25:58;33.28;;;31.23;;
53915;SDS011;39827;49.652;18.770;2023-07-29T08:28:27;34.55;;;32.35;;
53915;SDS011;39827;49.652;18.770;2023-07-29T08:30:54;25.25;;;23.65;;
53915;SDS011;39827;49.652;18.770;2023-07-29T08:33:19;36.75;;;34.28;;
53915;SDS011;39827;49.652;18.770;2023-07-29T08:35:45;34.53;;;32.22;;
53915;SDS011;39827;49.652;18.770;2023-07-29T08:38:10;30.23;;;28.08;;
53915;SDS011;39827;49.652;18.770;2023-07-29T08:40:36;33.25;;;31.17;;
53915;SDS011;39827;49.652;18.770;2023-07-29T08:43:06;37.03;;;34.80;;
53915;SDS011;39827;49.652;18.770;2023-07-29T08:45:36;30.42;;;28.40;;
53915;SDS011;39827;49.652;18.770;2023-07-29T08:48:08;36.75;;;34.17;;
53915;SDS011;39827;49.652;18.770;2023-07-29T08:50:36;28.48;;;26.67;;
53915;SDS011;39827;49.652;18.770;2023-07-29T08:53:05;34.22;;;32.08;;
53915;SDS011;39827;49.652;18.770;2023-07-29T08:55:31;38.45;;;35.58;;
53915;SDS011;39827;49.652;18.770;2023-07-29T08:57:57;38.78;;;35.63;;
53915;SDS011;39827;49.652;18.770;2023-07-29T09:00:25;27.70;;;25.77;;
53915;SDS011;39827;49.652;18.770;2023-07-29T09:02:51;29.23;;;27.35;;
53915;SDS011;39827;49.652;18.770;2023-07-29T09:05:16;25.08;;;23.50;;
53915;SDS011;39827;49.652;18.770;2023-07-29T09:07:42;25.50;;;23.77;;
53915;SDS011;39827;49.652;18.770;2023-07-29T09:10:09;29.80;;;27.95;;
53915;SDS011;39827;49.652;18.770;2023-07-29T09:12:37;28.35;;;26.35;;
53915;SDS011;39827;49.652;18.770;2023-07-29T09:15:04;30.70;;;28.58;;
53915;SDS011;39827;49.652;18.770;2023-07-29T09:17:31;35.03;;;32.80;;
53915;SDS011;39827;49.652;18.770;2023-07-29T09:19:57;27.10;;;25.48;;
53915;SDS011;39827;49.652;18.770;2023-07-29T09:22:23;27.80;;;26.08;;
53915;SDS011;39827;49.652;18.770;2023-07-29T09:24:50;29.90;;;27.90;;
53915;SDS011;39827;49.652;18.770;2023-07-29T09:27:26;22.88;;;21.42;;
53915;SDS011;39827;49.652;18.770;2023-07-29T09:29:52;29.45;;;27.60;;
53915;SDS011;39827;49.652;18.770;2023-07-29T09:32:21;22.48;;;20.77;;
53915;SDS011;39827;49.652;18.770;2023-07-29T09:34:48;28.80;;;26.88;;
53915;SDS011;39827;49.652;18.770;2023-07-29T09:37:17;23.13;;;21.63;;
53915;SDS011;39827;49.652;18.770;2023-07-29T09:39:46;22.60;;;21.13;;
53915;SDS011;39827;49.652;18.770;2023-07-29T09:42:16;30.17;;;28.23;;
53915;SDS011;39827;49.652;18.770;2023-07-29T09:44:43;36.10;;;33.80;;
53915;SDS011;39827;49.652;18.770;2023-07-29T09:47:09;25.63;;;23.95;;
53915;SDS011;39827;49.652;18.770;2023-07-29T09:49:35;38.53;;;36.10;;
53915;SDS011;39827;49.652;18.770;2023-07-29T09:52:03;55.45;;;52.10;;
53915;SDS011;39827;49.652;18.770;2023-07-29T09:54:30;54.92;;;51.65;;
53915;SDS011;39827;49.652;18.770;2023-07-29T09:56:56;44.67;;;42.00;;
53915;SDS011;39827;49.652;18.770;2023-07-29T09:59:23;48.38;;;45.50;;
53915;SDS011;39827;49.652;18.770;2023-07-29T10:01:49;35.45;;;33.33;;
53915;SDS011;39827;49.652;18.770;2023-07-29T10:04:15;41.28;;;38.63;;
53915;SDS011;39827;49.652;18.770;2023-07-29T10:06:42;23.58;;;22.17;;
53915;SDS011;39827;49.652;18.770;2023-07-29T10:09:08;32.08;;;30.08;;
53915;SDS011;39827;49.652;18.770;2023-07-29T10:11:36;19.33;;;18.02;;
53915;SDS011;39827;49.652;18.770;2023-07-29T10:14:02;19.98;;;18.67;;
53915;SDS011;39827;49.652;18.770;2023-07-29T10:16:28;21.48;;;20.10;;
53915;SDS011;39827;49.652;18.770;2023-07-29T10:18:54;27.35;;;25.65;;
53915;SDS011;39827;49.652;18.770;2023-07-29T10:21:22;26.77;;;24.95;;
53915;SDS011;39827;49.652;18.770;2023-07-29T10:23:48;30.38;;;28.58;;
53915;SDS011;39827;49.652;18.770;2023-07-29T10:26:18;28.33;;;26.55;;
53915;SDS011;39827;49.652;18.770;2023-07-29T10:28:46;28.65;;;26.85;;
53915;SDS011;39827;49.652;18.770;2023-07-29T10:31:13;46.58;;;43.78;;
53915;SDS011;39827;49.652;18.770;2023-07-29T10:33:41;40.45;;;37.97;;
53915;SDS011;39827;49.652;18.770;2023-07-29T10:36:08;32.20;;;30.08;;
53915;SDS011;39827;49.652;18.770;2023-07-29T10:38:34;37.80;;;35.50;;
53915;SDS011;39827;49.652;18.770;2023-07-29T10:41:00;32.97;;;30.88;;
53915;SDS011;39827;49.652;18.770;2023-07-29T10:43:26;34.78;;;32.67;;
53915;SDS011;39827;49.652;18.770;2023-07-29T10:45:56;33.78;;;31.70;;
53915;SDS011;39827;49.652;18.770;2023-07-29T10:48:41;29.58;;;27.77;;
53915;SDS011;39827;49.652;18.770;2023-07-29T10:56:29;29.33;;;27.48;;
53915;SDS011;39827;49.652;18.770;2023-07-29T10:59:22;34.53;;;32.40;;
53915;SDS011;39827;49.652;18.770;2023-07-29T11:01:56;33.17;;;31.15;;
53915;SDS011;39827;49.652;18.770;2023-07-29T11:04:23;42.13;;;39.47;;
53915;SDS011;39827;49.652;18.770;2023-07-29T11:09:42;40.53;;;38.10;;
53915;SDS011;39827;49.652;18.770;2023-07-29T11:17:55;28.15;;;26.42;;
53915;SDS011;39827;49.652;18.770;2023-07-29T11:20:23;28.23;;;26.48;;
53915;SDS011;39827;49.652;18.770;2023-07-29T11:25:34;27.70;;;25.75;;
53915;SDS011;39827;49.652;18.770;2023-07-29T11:28:00;34.75;;;32.13;;
53915;SDS011;39827;49.652;18.770;2023-07-29T11:30:26;29.80;;;27.83;;
53915;SDS011;39827;49.652;18.770;2023-07-29T11:32:53;31.30;;;29.25;;
53915;SDS011;39827;49.652;18.770;2023-07-29T11:35:19;28.63;;;26.83;;
53915;SDS011;39827;49.652;18.770;2023-07-29T11:37:46;30.52;;;28.60;;
53915;SDS011;39827;49.652;18.770;2023-07-29T11:40:17;27.73;;;25.85;;
53915;SDS011;39827;49.652;18.770;2023-07-29T11:42:45;25.67;;;24.07;;
53915;SDS011;39827;49.652;18.770;2023-07-29T11:45:12;24.23;;;22.58;;
53915;SDS011;39827;49.652;18.770;2023-07-29T11:47:37;28.90;;;27.15;;
53915;SDS011;39827;49.652;18.770;2023-07-29T11:50:04;26.85;;;25.08;;
53915;SDS011;39827;49.652;18.770;2023-07-29T11:52:42;25.92;;;24.33;;
53915;SDS011;39827;49.652;18.770;2023-07-29T11:55:08;26.42;;;24.83;;
53915;SDS011;39827;49.652;18.770;2023-07-29T11:57:35;28.23;;;26.52;;
53915;SDS011;39827;49.652;18.770;2023-07-29T12:00:02;27.08;;;25.48;;
53915;SDS011;39827;49.652;18.770;2023-07-29T12:02:29;27.80;;;26.17;;
53915;SDS011;39827;49.652;18.770;2023-07-29T12:04:55;24.02;;;22.45;;
53915;SDS011;39827;49.652;18.770;2023-07-29T12:07:22;21.58;;;20.17;;
53915;SDS011;39827;49.652;18.770;2023-07-29T12:09:48;25.20;;;23.50;;
53915;SDS011;39827;49.652;18.770;2023-07-29T12:12:15;34.60;;;32.55;;
53915;SDS011;39827;49.652;18.770;2023-07-29T12:14:47;24.73;;;23.13;;
53915;SDS011;39827;49.652;18.770;2023-07-29T12:17:12;24.63;;;23.13;;
53915;SDS011;39827;49.652;18.770;2023-07-29T12:19:38;25.50;;;23.90;;
53915;SDS011;39827;49.652;18.770;2023-07-29T12:22:05;24.45;;;23.00;;
53915;SDS011;39827;49.652;18.770;2023-07-29T12:24:35;38.80;;;36.45;;
53915;SDS011;39827;49.652;18.770;2023-07-29T12:27:03;26.73;;;24.90;;
53915;SDS011;39827;49.652;18.770;2023-07-29T12:29:29;42.65;;;40.15;;
53915;SDS011;39827;49.652;18.770;2023-07-29T12:32:02;34.90;;;32.80;;
53915;SDS011;39827;49.652;18.770;2023-07-29T12:34:29;36.08;;;33.50;;
53915;SDS011;39827;49.652;18.770;2023-07-29T12:36:56;37.88;;;35.53;;
53915;SDS011;39827;49.652;18.770;2023-07-29T12:39:28;46.17;;;43.08;;
53915;SDS011;39827;49.652;18.770;2023-07-29T12:41:55;42.78;;;39.60;;
53915;SDS011;39827;49.652;18.770;2023-07-29T12:44:23;34.63;;;32.53;;
53915;SDS011;39827;49.652;18.770;2023-07-29T12:46:57;45.05;;;42.35;;
53915;SDS011;39827;49.652;18.770;2023-07-29T12:49:22;36.33;;;34.15;;
53915;SDS011;39827;49.652;18.770;2023-07-29T12:51:48;38.65;;;36.28;;
53915;SDS011;39827;49.652;18.770;2023-07-29T12:54:13;31.95;;;30.02;;
53915;SDS011;39827;49.652;18.770;2023-07-29T12:56:39;32.10;;;29.90;;
53915;SDS011;39827;49.652;18.770;2023-07-29T12:59:04;38.13;;;35.78;;
53915;SDS011;39827;49.652;18.770;2023-07-29T13:01:30;52.03;;;48.88;;
53915;SDS011;39827;49.652;18.770;2023-07-29T13:03:56;29.33;;;27.63;;
53915;SDS011;39827;49.652;18.770;2023-07-29T13:06:22;34.90;;;32.60;;
53915;SDS011;39827;49.652;18.770;2023-07-29T13:08:48;32.15;;;30.23;;
53915;SDS011;39827;49.652;18.770;2023-07-29T13:11:14;59.42;;;55.92;;
53915;SDS011;39827;49.652;18.770;2023-07-29T13:13:40;42.15;;;39.58;;
53915;SDS011;39827;49.652;18.770;2023-07-29T13:16:06;49.38;;;46.47;;
53915;SDS011;39827;49.652;18.770;2023-07-29T13:18:31;89.75;;;84.72;;
53915;SDS011;39827;49.652;18.770;2023-07-29T13:20:57;90.47;;;85.45;;
53915;SDS011;39827;49.652;18.770;2023-07-29T13:23:23;74.90;;;70.68;;
53915;SDS011;39827;49.652;18.770;2023-07-29T13:25:49;58.08;;;54.72;;
53915;SDS011;39827;49.652;18.770;2023-07-29T13:28:15;76.47;;;72.05;;
53915;SDS011;39827;49.652;18.770;2023-07-29T13:30:40;73.15;;;68.97;;
53915;SDS011;39827;49.652;18.770;2023-07-29T13:33:06;76.13;;;71.72;;
53915;SDS011;39827;49.652;18.770;2023-07-29T13:35:32;30.50;;;28.58;;
53915;SDS011;39827;49.652;18.770;2023-07-29T13:37:58;65.97;;;62.13;;
53915;SDS011;39827;49.652;18.770;2023-07-29T13:40:23;45.30;;;42.67;;
53915;SDS011;39827;49.652;18.770;2023-07-29T13:42:48;80.95;;;76.30;;
53915;SDS011;39827;49.652;18.770;2023-07-29T13:45:14;42.88;;;40.38;;
53915;SDS011;39827;49.652;18.770;2023-07-29T13:47:40;47.60;;;44.80;;
53915;SDS011;39827;49.652;18.770;2023-07-29T13:50:05;50.70;;;47.75;;
53915;SDS011;39827;49.652;18.770;2023-07-29T13:52:33;49.30;;;46.22;;
53915;SDS011;39827;49.652;18.770;2023-07-29T13:54:58;52.67;;;49.63;;
53915;SDS011;39827;49.652;18.770;2023-07-29T13:57:23;46.05;;;43.38;;
53915;SDS011;39827;49.652;18.770;2023-07-29T13:59:49;36.90;;;34.60;;
53915;SDS011;39827;49.652;18.770;2023-07-29T14:02:14;34.03;;;32.03;;
53915;SDS011;39827;49.652;18.770;2023-07-29T14:04:40;28.52;;;26.83;;
53915;SDS011;39827;49.652;18.770;2023-07-29T14:07:05;28.67;;;26.98;;
53915;SDS011;39827;49.652;18.770;2023-07-29T14:09:31;35.33;;;33.20;;
53915;SDS011;39827;49.652;18.770;2023-07-29T14:11:56;25.88;;;24.30;;
53915;SDS011;39827;49.652;18.770;2023-07-29T14:14:21;39.38;;;36.97;;
53915;SDS011;39827;49.652;18.770;2023-07-29T14:16:47;47.85;;;44.85;;